Oldcastle, Ireland
Current Conditions -  °F | °C
As of 9:30 PM on Friday 24 Oct 2014 (Local Time) from EIDW Reporting Station
Scattered Clouds Scattered Clouds  
Wind Chill: 44°   Ceiling: Unl
Heat Index: 48°   Visibility: 6mi
Dew Point: 45°   Wind: 9mph
Humidity: 87%   Direction: 220°SW
Pressure: 29.88"   Gusts: NA
Location:  53.77°N, 7.16°W
Report Text: EIDW 242030Z 22008KT 9999 FEW018 SCT250 09/07 Q1012 NOSIG
Loading
Personal Weather Stations






























Interactive Weather Map
Tropical Storm Tracking
New forecast layout! Learn more

10-Day Weather Forecast

Advertisements
Track Severe Weather on mobile